Time;durP1;ratioP1;P1;durP2;ratioP2;P2;SDS_P1;SDS_P2;PMS_P1;PMS_P2;Temp;Humidity;BMP_temperature;BMP_pressure;BME280_temperature;BME280_humidity;BME280_pressure;Samples;Min_cycle;Max_cycle;Signal;HPM_P1;HPM_P2
2022/03/23 00:02:17;;;;;;;9.02;4.43;;;5.60;61.60;;;;;;5065191;28;20096;-67
2022/03/23 00:04:48;;;;;;;9.57;3.97;;;5.60;61.70;;;;;;5070561;28;20475;-68
2022/03/23 00:07:15;;;;;;;8.73;3.70;;;5.50;61.70;;;;;;5071382;28;20414;-68
2022/03/23 00:09:42;;;;;;;11.48;4.72;;;5.50;61.70;;;;;;5069524;28;20076;-69
2022/03/23 00:12:09;;;;;;;5.50;3.22;;;5.40;61.70;;;;;;5070583;28;20526;-69
2022/03/23 00:14:37;;;;;;;9.32;3.78;;;5.40;61.80;;;;;;5064265;28;20178;-68
2022/03/23 00:17:04;;;;;;;7.15;3.88;;;5.40;61.80;;;;;;5041458;28;20054;-68
2022/03/23 00:19:31;;;;;;;6.85;2.92;;;5.40;61.70;;;;;;5061191;28;20788;-68
2022/03/23 00:22:00;;;;;;;6.18;3.53;;;5.40;61.70;;;;;;5059002;28;20073;-69
2022/03/23 00:24:28;;;;;;;8.02;3.55;;;5.30;61.80;;;;;;5063719;28;20045;-69
2022/03/23 00:26:55;;;;;;;7.45;3.40;;;5.30;62.00;;;;;;5065625;28;20061;-68
2022/03/23 00:29:21;;;;;;;9.52;3.35;;;5.20;61.90;;;;;;5042790;28;20494;-69
2022/03/23 00:31:48;;;;;;;7.63;3.30;;;5.20;62.10;;;;;;5064826;28;20041;-67
2022/03/23 00:34:15;;;;;;;7.10;2.80;;;5.10;62.20;;;;;;5067642;28;20510;-69
2022/03/23 00:36:42;;;;;;;7.25;2.85;;;5.10;62.20;;;;;;5072016;28;20454;-68
2022/03/23 00:39:11;;;;;;;7.10;3.28;;;5.10;62.30;;;;;;5070475;28;20051;-69
2022/03/23 00:41:38;;;;;;;7.60;3.50;;;5.00;62.30;;;;;;5073136;28;20044;-68
2022/03/23 00:44:07;;;;;;;6.93;3.08;;;5.00;62.30;;;;;;5050722;28;20048;-68
2022/03/23 00:46:34;;;;;;;6.80;3.50;;;5.00;62.40;;;;;;5066799;28;20052;-68
2022/03/23 00:49:01;;;;;;;7.20;3.13;;;5.00;62.40;;;;;;5051417;28;20374;-68
2022/03/23 00:51:29;;;;;;;7.35;3.28;;;4.90;62.40;;;;;;5067432;28;20104;-68
2022/03/23 00:53:56;;;;;;;7.97;3.67;;;4.90;62.40;;;;;;5065712;28;20041;-68
2022/03/23 00:56:24;;;;;;;7.00;3.35;;;4.90;62.30;;;;;;5049506;28;20063;-68
2022/03/23 00:58:51;;;;;;;5.25;2.60;;;4.90;62.10;;;;;;5067441;28;20045;-68
2022/03/23 01:01:18;;;;;;;7.05;3.25;;;4.90;62.10;;;;;;5062850;28;20041;-68
2022/03/23 01:03:45;;;;;;;6.68;3.45;;;4.80;62.20;;;;;;5067017;28;20041;-69
2022/03/23 01:06:12;;;;;;;7.47;3.45;;;4.80;62.30;;;;;;5067750;28;20502;-68
2022/03/23 01:08:40;;;;;;;5.70;2.92;;;4.80;62.20;;;;;;5060090;28;20135;-69
2022/03/23 01:11:07;;;;;;;7.47;3.00;;;4.70;62.20;;;;;;5065836;28;20117;-68
2022/03/23 01:13:37;;;;;;;6.07;2.75;;;4.70;62.30;;;;;;5048599;28;20048;-69
2022/03/23 01:16:05;;;;;;;7.50;3.25;;;4.70;62.30;;;;;;5066514;28;20492;-68
2022/03/23 01:18:32;;;;;;;5.38;2.65;;;4.70;62.30;;;;;;5066405;28;20049;-69
2022/03/23 01:21:01;;;;;;;7.82;2.88;;;4.70;62.30;;;;;;5057835;28;20044;-68
2022/03/23 01:23:28;;;;;;;4.57;2.60;;;4.60;62.50;;;;;;5050979;28;20444;-67
2022/03/23 01:25:55;;;;;;;10.13;3.10;;;4.60;62.60;;;;;;5031026;28;20044;-68
2022/03/23 01:28:26;;;;;;;7.70;3.22;;;4.60;62.70;;;;;;5037394;28;20056;-67
2022/03/23 01:30:54;;;;;;;7.25;3.08;;;4.60;62.60;;;;;;5056122;28;20049;-68
2022/03/23 01:33:22;;;;;;;8.68;3.65;;;4.60;62.60;;;;;;5059644;28;20070;-67
2022/03/23 01:35:49;;;;;;;8.32;2.67;;;4.50;62.80;;;;;;5060720;28;20116;-67
2022/03/23 01:38:17;;;;;;;6.38;3.00;;;4.50;62.80;;;;;;5040140;28;20060;-68
2022/03/23 01:40:48;;;;;;;6.03;2.40;;;4.40;62.80;;;;;;5037522;28;20044;-68
2022/03/23 01:43:17;;;;;;;5.13;2.72;;;4.40;62.90;;;;;;5055357;28;20055;-68
2022/03/23 01:45:44;;;;;;;5.45;2.47;;;4.40;62.90;;;;;;5049848;28;20044;-68
2022/03/23 01:48:13;;;;;;;7.00;3.15;;;4.40;62.90;;;;;;5070692;28;20050;-68
2022/03/23 01:50:40;;;;;;;6.78;3.08;;;4.40;63.00;;;;;;5063751;28;20159;-68
2022/03/23 01:53:07;;;;;;;5.00;2.85;;;4.40;63.00;;;;;;5070278;28;20059;-68
2022/03/23 01:55:35;;;;;;;8.57;3.30;;;4.30;63.00;;;;;;5075091;28;20545;-67
2022/03/23 01:58:02;;;;;;;5.75;2.55;;;4.30;63.10;;;;;;5069622;28;20060;-68
2022/03/23 02:00:29;;;;;;;7.32;3.17;;;4.30;63.00;;;;;;5033346;28;20047;-68
2022/03/23 02:02:57;;;;;;;5.25;2.67;;;4.20;63.00;;;;;;5061472;28;20119;-69
2022/03/23 02:05:26;;;;;;;6.00;2.50;;;4.20;63.10;;;;;;5067591;28;20052;-69
2022/03/23 02:07:56;;;;;;;9.02;3.17;;;4.20;63.20;;;;;;5076043;28;20151;-68
2022/03/23 02:10:23;;;;;;;4.88;2.80;;;4.20;63.30;;;;;;5075031;28;20036;-69
2022/03/23 02:13:10;;;;;;;5.80;3.30;;;4.10;63.30;;;;;;5069054;28;20044;-69
2022/03/23 02:15:38;;;;;;;8.07;2.97;;;4.10;63.30;;;;;;5059376;28;20123;-68
2022/03/23 02:18:06;;;;;;;6.20;3.40;;;4.10;63.40;;;;;;5079096;28;20143;-67
2022/03/23 02:20:34;;;;;;;5.65;2.78;;;4.00;63.60;;;;;;5078677;28;20451;-68
2022/03/23 02:23:03;;;;;;;6.68;3.13;;;4.00;63.70;;;;;;5058773;28;20075;-68
2022/03/23 02:25:30;;;;;;;6.07;2.65;;;4.00;63.70;;;;;;5072657;28;20048;-68
2022/03/23 02:27:58;;;;;;;6.50;3.38;;;4.00;63.70;;;;;;5075717;28;20044;-67
2022/03/23 02:30:25;;;;;;;8.32;2.88;;;4.00;63.80;;;;;;5071509;28;20044;-67
2022/03/23 02:32:52;;;;;;;6.43;2.90;;;4.00;63.80;;;;;;5072253;28;20116;-68
2022/03/23 02:35:19;;;;;;;7.53;2.78;;;4.00;63.70;;;;;;5075186;28;20044;-68
2022/03/23 02:37:46;;;;;;;7.20;3.13;;;3.90;63.80;;;;;;5074767;28;20055;-67
2022/03/23 02:40:14;;;;;;;5.68;3.15;;;3.90;64.00;;;;;;5055213;28;20126;-67
2022/03/23 02:42:42;;;;;;;5.80;2.78;;;3.90;64.00;;;;;;5075447;28;20062;-69
2022/03/23 02:45:11;;;;;;;5.80;3.78;;;3.90;64.20;;;;;;5073516;28;20091;-69
2022/03/23 02:47:38;;;;;;;4.38;2.50;;;3.80;64.20;;;;;;5084285;28;20443;-68
2022/03/23 02:50:06;;;;;;;6.97;2.85;;;3.80;64.30;;;;;;5082856;28;20048;-69
2022/03/23 02:52:33;;;;;;;8.82;3.53;;;3.80;64.40;;;;;;5084837;28;20072;-68
2022/03/23 03:03:59;;;;;;;5.88;2.33;;;3.70;64.80;;;;;;5023001;28;20166;-69
2022/03/23 03:06:26;;;;;;;5.82;3.03;;;3.70;64.80;;;;;;5079994;28;20497;-68
2022/03/23 03:08:53;;;;;;;7.65;3.58;;;3.70;64.80;;;;;;5087452;28;20109;-69
2022/03/23 03:11:21;;;;;;;5.75;2.30;;;3.70;64.90;;;;;;5081779;28;20563;-67
2022/03/23 03:13:51;;;;;;;7.60;3.25;;;3.60;64.80;;;;;;5081412;28;20135;-68
2022/03/23 03:16:19;;;;;;;6.10;2.83;;;3.60;64.90;;;;;;5072815;28;20120;-68
2022/03/23 03:18:47;;;;;;;6.47;3.47;;;3.60;64.80;;;;;;5083167;28;20101;-68
2022/03/23 03:21:15;;;;;;;5.72;2.55;;;3.50;64.90;;;;;;5084831;28;20409;-68
2022/03/23 03:23:44;;;;;;;6.18;2.65;;;3.60;64.90;;;;;;5081494;28;20040;-68
2022/03/23 03:26:12;;;;;;;4.70;2.60;;;3.50;65.10;;;;;;5080811;28;20043;-68
2022/03/23 03:28:40;;;;;;;6.22;2.70;;;3.50;65.10;;;;;;5079387;28;20456;-68
2022/03/23 03:35:04;;;;;;;6.53;3.00;;;3.40;65.10;;;;;;5081678;28;20085;-67
2022/03/23 03:37:31;;;;;;;5.95;2.70;;;3.40;65.30;;;;;;5082976;28;20053;-68
2022/03/23 03:39:58;;;;;;;6.10;3.22;;;3.40;65.30;;;;;;5082628;28;20123;-67
2022/03/23 03:42:26;;;;;;;6.22;2.70;;;3.40;65.40;;;;;;5070375;28;20045;-68
2022/03/23 03:44:53;;;;;;;10.10;4.00;;;3.40;65.60;;;;;;5078597;28;20043;-68
2022/03/23 03:47:20;;;;;;;5.75;2.42;;;3.30;65.70;;;;;;5074557;28;20074;-68
2022/03/23 03:49:47;;;;;;;6.90;3.15;;;3.30;65.60;;;;;;5070395;28;20048;-68
2022/03/23 03:52:16;;;;;;;8.43;2.42;;;3.30;65.60;;;;;;5070218;28;20040;-69
2022/03/23 03:54:43;;;;;;;5.80;2.78;;;3.30;65.60;;;;;;5066771;28;20120;-69
2022/03/23 03:57:10;;;;;;;6.30;3.30;;;3.30;65.60;;;;;;5068631;28;20041;-69
2022/03/23 03:59:37;;;;;;;5.93;2.80;;;3.30;65.50;;;;;;5065683;28;20041;-69
2022/03/23 04:02:05;;;;;;;6.38;3.08;;;3.30;65.50;;;;;;5053488;28;20049;-69
2022/03/23 04:04:32;;;;;;;9.00;3.08;;;3.20;65.50;;;;;;5062077;28;20044;-67
2022/03/23 04:06:59;;;;;;;5.72;3.08;;;3.20;65.50;;;;;;5069821;28;20056;-68
2022/03/23 04:09:28;;;;;;;5.57;2.60;;;3.20;65.60;;;;;;5074637;28;20045;-68
2022/03/23 04:11:54;;;;;;;5.65;2.80;;;3.10;65.50;;;;;;5072675;28;20135;-68
2022/03/23 04:14:21;;;;;;;5.88;2.67;;;3.20;65.50;;;;;;5067409;28;20125;-68
2022/03/23 04:16:48;;;;;;;6.45;2.53;;;3.10;65.40;;;;;;5069672;28;20062;-68
2022/03/23 04:19:18;;;;;;;5.60;2.65;;;3.10;65.50;;;;;;5068507;28;20044;-67
2022/03/23 04:21:45;;;;;;;8.60;2.92;;;3.10;65.40;;;;;;5070779;28;20044;-67
2022/03/23 04:24:12;;;;;;;4.20;1.92;;;3.10;65.60;;;;;;5073573;28;20139;-67
2022/03/23 04:26:41;;;;;;;6.50;2.88;;;3.10;65.70;;;;;;5068605;28;20519;-68
2022/03/23 04:29:08;;;;;;;5.38;2.33;;;3.10;65.70;;;;;;5074559;28;20517;-68
2022/03/23 04:31:35;;;;;;;4.80;2.60;;;3.00;65.60;;;;;;5073449;28;20037;-67
2022/03/23 04:34:02;;;;;;;5.90;2.45;;;3.00;65.60;;;;;;5075866;28;20064;-67
2022/03/23 04:36:29;;;;;;;4.45;2.00;;;3.00;65.60;;;;;;5069809;28;20067;-69
2022/03/23 04:38:56;;;;;;;7.63;3.03;;;3.00;65.80;;;;;;5072355;28;20040;-69
2022/03/23 04:41:23;;;;;;;7.22;3.20;;;2.90;65.80;;;;;;5072782;28;20123;-69
2022/03/23 04:43:51;;;;;;;5.43;2.88;;;3.00;66.00;;;;;;5067467;28;20378;-69
2022/03/23 04:46:18;;;;;;;5.47;2.70;;;2.90;65.90;;;;;;5077390;28;20121;-67
2022/03/23 04:48:45;;;;;;;4.47;2.60;;;2.90;65.90;;;;;;5081004;28;20115;-69
2022/03/23 04:51:12;;;;;;;7.53;2.92;;;2.90;66.00;;;;;;5083845;28;20119;-68
2022/03/23 04:53:39;;;;;;;9.35;2.80;;;2.90;66.00;;;;;;5080946;28;20048;-69
2022/03/23 04:56:07;;;;;;;7.03;2.75;;;2.80;66.10;;;;;;5081290;28;20040;-69
2022/03/23 04:58:35;;;;;;;5.70;2.70;;;2.80;66.20;;;;;;5078845;28;20052;-69
2022/03/23 05:01:04;;;;;;;5.07;2.25;;;2.80;66.20;;;;;;5078829;28;20044;-68
2022/03/23 05:03:32;;;;;;;7.68;3.13;;;2.80;66.20;;;;;;5083139;28;20642;-68
2022/03/23 05:05:59;;;;;;;6.90;2.95;;;2.80;66.40;;;;;;5079834;28;20051;-68
2022/03/23 05:08:25;;;;;;;6.45;3.35;;;2.70;66.50;;;;;;5082277;28;20068;-69
2022/03/23 05:10:53;;;;;;;5.32;2.47;;;2.70;66.60;;;;;;5077399;28;20037;-67
2022/03/23 05:13:20;;;;;;;4.32;2.63;;;2.70;66.50;;;;;;5079191;28;20048;-69
2022/03/23 05:15:47;;;;;;;6.80;2.92;;;2.70;66.60;;;;;;5082256;28;20493;-68
2022/03/23 05:18:16;;;;;;;8.45;3.30;;;2.70;66.50;;;;;;5086446;28;20114;-68
2022/03/23 05:20:43;;;;;;;6.20;2.88;;;2.70;66.60;;;;;;5077899;28;20039;-68
2022/03/23 05:23:09;;;;;;;5.88;2.35;;;2.70;66.60;;;;;;5078883;28;20051;-68
2022/03/23 05:25:36;;;;;;;5.53;2.38;;;2.80;66.60;;;;;;5081864;28;20052;-68
2022/03/23 05:28:08;;;;;;;9.90;3.30;;;2.70;66.60;;;;;;5074829;28;20106;-68
2022/03/23 05:30:35;;;;;;;6.05;3.45;;;2.70;66.60;;;;;;5056323;28;20135;-69
2022/03/23 05:33:02;;;;;;;8.82;3.78;;;2.70;66.50;;;;;;5081773;28;20039;-69
2022/03/23 05:35:31;;;;;;;5.40;2.80;;;2.70;66.60;;;;;;5076249;28;20482;-69
2022/03/23 05:37:58;;;;;;;9.10;2.97;;;2.70;66.70;;;;;;5059063;28;20302;-68
2022/03/23 05:40:25;;;;;;;8.82;3.10;;;2.70;66.70;;;;;;5073696;28;20134;-68
2022/03/23 05:42:52;;;;;;;9.98;3.55;;;2.70;66.80;;;;;;5081659;28;20070;-68
2022/03/23 05:45:19;;;;;;;5.72;2.55;;;2.60;66.80;;;;;;5080329;28;20417;-68
2022/03/23 05:47:48;;;;;;;8.38;3.95;;;2.70;66.70;;;;;;5071009;28;20059;-68
2022/03/23 05:50:15;;;;;;;8.27;2.97;;;2.70;66.70;;;;;;5084104;28;20551;-68
2022/03/23 05:52:44;;;;;;;5.55;2.55;;;2.70;66.80;;;;;;5079338;28;20127;-69
2022/03/23 05:55:11;;;;;;;6.55;3.20;;;2.70;66.80;;;;;;5078409;28;20047;-68
2022/03/23 05:57:39;;;;;;;8.75;3.55;;;2.60;66.90;;;;;;5081806;28;20444;-69
2022/03/23 06:00:08;;;;;;;13.02;3.92;;;2.60;66.90;;;;;;5064667;28;20103;-68
2022/03/23 06:02:38;;;;;;;6.93;3.42;;;2.70;66.90;;;;;;5078444;28;20127;-68
2022/03/23 06:05:06;;;;;;;6.15;3.55;;;2.70;66.90;;;;;;5070688;28;20044;-71
2022/03/23 06:07:34;;;;;;;9.88;3.00;;;2.70;67.00;;;;;;5081782;28;20044;-71
2022/03/23 06:10:03;;;;;;;8.38;3.55;;;2.70;67.00;;;;;;5081930;28;20032;-70
2022/03/23 06:12:30;;;;;;;10.18;3.38;;;2.70;66.90;;;;;;5075987;28;20080;-71
2022/03/23 06:14:57;;;;;;;6.88;3.17;;;2.70;66.80;;;;;;5077447;28;20043;-71
2022/03/23 06:17:24;;;;;;;6.18;2.92;;;2.80;66.80;;;;;;5080099;28;20045;-72
2022/03/23 06:19:51;;;;;;;7.03;2.95;;;2.80;66.80;;;;;;5080983;28;20052;-71
2022/03/23 06:22:18;;;;;;;11.73;3.75;;;2.80;66.90;;;;;;5081553;28;20051;-71
2022/03/23 06:24:45;;;;;;;6.43;3.08;;;2.80;66.90;;;;;;5085652;28;20044;-71
2022/03/23 06:27:14;;;;;;;4.88;2.83;;;2.90;66.80;;;;;;5082020;28;20508;-71
2022/03/23 06:29:41;;;;;;;5.97;2.92;;;2.90;66.70;;;;;;5079976;28;20044;-71
2022/03/23 06:32:09;;;;;;;8.98;3.88;;;3.00;66.60;;;;;;5076235;28;20841;-70
2022/03/23 06:34:36;;;;;;;7.07;3.20;;;3.10;66.70;;;;;;5084091;28;20043;-71
2022/03/23 06:37:03;;;;;;;6.75;3.53;;;3.20;66.50;;;;;;5083901;28;20074;-71
2022/03/23 06:39:30;;;;;;;8.82;3.22;;;3.20;66.30;;;;;;5074900;28;20051;-71
2022/03/23 06:41:57;;;;;;;7.85;3.15;;;3.30;66.30;;;;;;5076462;28;20037;-71
2022/03/23 06:44:26;;;;;;;5.95;3.13;;;3.40;66.10;;;;;;5077045;28;20044;-70
2022/03/23 06:46:53;;;;;;;8.73;3.33;;;3.40;66.00;;;;;;5082817;28;20060;-71
2022/03/23 06:49:20;;;;;;;6.30;3.38;;;3.50;65.80;;;;;;5080200;28;20138;-71
2022/03/23 06:51:47;;;;;;;5.80;2.92;;;3.70;65.50;;;;;;5090501;28;20044;-71
2022/03/23 06:54:14;;;;;;;10.48;3.35;;;3.80;65.10;;;;;;5085799;28;20425;-71
2022/03/23 06:56:41;;;;;;;7.60;3.72;;;3.90;64.60;;;;;;5083505;28;20052;-71
2022/03/23 06:59:08;;;;;;;7.55;4.15;;;4.00;64.40;;;;;;5060344;28;20400;-71
2022/03/23 07:01:36;;;;;;;8.20;3.33;;;4.10;64.10;;;;;;5077034;28;20500;-72
2022/03/23 07:04:03;;;;;;;6.50;2.80;;;4.20;64.00;;;;;;5080483;28;20101;-72
2022/03/23 07:06:30;;;;;;;7.22;3.70;;;4.30;63.90;;;;;;5085702;28;20076;-72
2022/03/23 07:11:41;;;;;;;9.10;4.18;;;4.30;63.70;;;;;;5080775;28;20523;-70
2022/03/23 07:14:08;;;;;;;8.70;3.80;;;4.30;63.80;;;;;;5081883;28;20040;-72
2022/03/23 07:16:37;;;;;;;7.28;3.97;;;4.40;63.90;;;;;;5080523;28;20071;-70
2022/03/23 07:19:04;;;;;;;6.60;3.60;;;4.40;64.00;;;;;;5080951;28;20036;-71
2022/03/23 07:21:32;;;;;;;8.15;3.25;;;4.40;63.90;;;;;;5085507;28;20070;-71
2022/03/23 07:23:59;;;;;;;7.60;3.55;;;4.50;63.50;;;;;;5071417;28;20037;-71
2022/03/23 07:26:26;;;;;;;9.77;3.47;;;4.50;63.50;;;;;;5073260;28;20045;-71
2022/03/23 07:28:53;;;;;;;8.50;3.03;;;4.60;63.50;;;;;;5077630;28;20063;-70
2022/03/23 07:31:20;;;;;;;6.03;2.92;;;4.60;63.50;;;;;;5083708;28;20569;-70
2022/03/23 07:33:50;;;;;;;9.07;3.63;;;4.70;63.40;;;;;;5080022;28;20056;-71
2022/03/23 07:36:17;;;;;;;9.00;3.58;;;4.60;63.20;;;;;;5076579;28;20103;-70
2022/03/23 07:38:44;;;;;;;8.00;3.47;;;4.70;63.00;;;;;;5088793;28;20044;-70
2022/03/23 07:41:11;;;;;;;7.78;3.28;;;4.70;63.00;;;;;;5078987;28;20567;-70
2022/03/23 07:43:38;;;;;;;7.72;3.50;;;4.70;62.90;;;;;;5080990;28;20047;-71
2022/03/23 07:46:05;;;;;;;7.82;3.72;;;4.80;62.90;;;;;;5083246;28;20040;-71
2022/03/23 07:48:32;;;;;;;19.23;3.83;;;4.90;62.80;;;;;;5068772;28;20485;-70
2022/03/23 07:51:00;;;;;;;8.65;4.25;;;5.00;62.50;;;;;;5077036;28;20043;-71
2022/03/23 07:53:28;;;;;;;7.65;3.13;;;5.10;62.60;;;;;;5082085;28;20044;-71
2022/03/23 07:55:55;;;;;;;9.50;3.75;;;5.30;62.50;;;;;;5076086;28;20504;-71
2022/03/23 07:58:22;;;;;;;7.80;3.60;;;5.40;62.40;;;;;;5063147;28;20045;-70
2022/03/23 08:00:49;;;;;;;9.00;3.97;;;5.60;62.40;;;;;;5062961;28;20052;-72
2022/03/23 08:03:16;;;;;;;8.93;4.32;;;5.70;62.00;;;;;;5064900;28;20457;-72
2022/03/23 08:05:43;;;;;;;9.23;3.80;;;5.90;61.60;;;;;;5074900;28;20482;-72
2022/03/23 08:08:11;;;;;;;8.75;4.10;;;6.00;60.70;;;;;;5072017;28;20552;-72
2022/03/23 08:10:41;;;;;;;7.63;4.03;;;6.20;60.30;;;;;;5074107;28;20622;-70
2022/03/23 08:13:09;;;;;;;10.77;4.18;;;6.30;60.30;;;;;;5072389;28;20083;-70
2022/03/23 08:15:37;;;;;;;8.77;4.38;;;6.40;59.90;;;;;;5066190;28;20048;-69
2022/03/23 08:18:05;;;;;;;13.90;4.82;;;6.50;59.50;;;;;;5075618;28;20426;-71
2022/03/23 08:20:36;;;;;;;9.55;4.50;;;6.70;59.30;;;;;;5075112;28;20040;-71
2022/03/23 08:23:04;;;;;;;10.73;4.28;;;6.80;59.40;;;;;;5064308;28;20110;-71
2022/03/23 08:25:34;;;;;;;9.10;3.78;;;6.90;59.10;;;;;;5064109;28;20572;-72
2022/03/23 08:28:01;;;;;;;7.60;3.90;;;7.00;58.60;;;;;;5071474;28;20443;-70
2022/03/23 08:30:29;;;;;;;10.00;4.45;;;7.10;58.70;;;;;;5061701;28;20041;-70
2022/03/23 08:32:58;;;;;;;8.95;3.40;;;7.20;57.50;;;;;;5064953;28;20519;-70
2022/03/23 08:35:26;;;;;;;7.97;4.18;;;7.40;57.30;;;;;;5063936;28;20066;-72
2022/03/23 08:37:53;;;;;;;8.80;4.10;;;7.60;57.10;;;;;;5058078;28;20041;-70
2022/03/23 08:40:20;;;;;;;7.43;4.07;;;7.70;56.90;;;;;;5067322;28;20052;-70
2022/03/23 08:42:49;;;;;;;8.05;3.60;;;7.80;57.10;;;;;;5074655;28;20147;-70
2022/03/23 08:45:17;;;;;;;8.35;3.30;;;8.00;56.40;;;;;;5073305;28;20052;-70
2022/03/23 08:47:44;;;;;;;9.75;4.43;;;8.10;56.80;;;;;;5071904;28;20084;-71
2022/03/23 08:50:13;;;;;;;7.90;3.58;;;8.20;55.70;;;;;;5072987;28;20129;-72
2022/03/23 08:52:41;;;;;;;12.63;4.65;;;8.30;55.70;;;;;;5051237;28;20053;-71
2022/03/23 08:55:10;;;;;;;8.40;4.40;;;8.40;55.60;;;;;;5061663;28;20041;-70
2022/03/23 08:57:38;;;;;;;7.07;3.97;;;8.50;55.40;;;;;;5061944;28;20093;-69
2022/03/23 09:00:11;;;;;;;6.90;3.72;;;8.60;55.00;;;;;;5061357;28;20053;-70
2022/03/23 09:02:39;;;;;;;8.77;4.10;;;8.70;55.30;;;;;;5061170;28;20063;-77
2022/03/23 09:05:09;;;;;;;7.30;3.67;;;8.80;55.70;;;;;;5065976;28;20032;-74
2022/03/23 09:07:37;;;;;;;12.95;5.10;;;8.90;55.70;;;;;;5065087;28;20040;-75
2022/03/23 09:10:05;;;;;;;10.90;4.47;;;9.00;55.60;;;;;;5068509;28;20040;-74
2022/03/23 09:12:32;;;;;;;9.90;4.57;;;9.10;54.20;;;;;;5064752;28;20041;-76
2022/03/23 09:15:00;;;;;;;9.65;4.70;;;9.20;54.60;;;;;;5073094;28;20064;-76
2022/03/23 09:17:28;;;;;;;8.30;4.05;;;9.30;54.70;;;;;;5068034;28;20052;-75
2022/03/23 09:19:56;;;;;;;9.18;5.00;;;9.40;55.00;;;;;;5070738;28;20109;-76
2022/03/23 09:22:22;;;;;;;8.23;4.35;;;9.40;53.60;;;;;;5069267;28;20068;-75
2022/03/23 09:24:49;;;;;;;9.60;4.25;;;9.60;53.30;;;;;;5066994;28;20119;-75
2022/03/23 09:27:16;;;;;;;8.60;4.00;;;9.70;53.30;;;;;;5072850;28;20044;-76
2022/03/23 09:29:44;;;;;;;9.98;3.97;;;9.70;53.30;;;;;;5061210;28;20046;-74
2022/03/23 09:32:12;;;;;;;6.35;3.40;;;9.80;53.10;;;;;;5063885;28;20043;-73
2022/03/23 09:34:40;;;;;;;8.90;4.35;;;10.00;53.70;;;;;;5067803;28;20498;-75
2022/03/23 09:39:48;;;;;;;8.15;3.92;;;10.20;52.60;;;;;;5060821;28;20044;-74
2022/03/23 09:42:18;;;;;;;8.13;3.72;;;10.20;52.70;;;;;;5075527;28;20068;-73
2022/03/23 09:44:46;;;;;;;7.45;4.22;;;10.40;52.50;;;;;;5070990;28;20040;-74
2022/03/23 09:47:13;;;;;;;7.75;3.80;;;10.40;52.60;;;;;;5077624;28;20056;-73
2022/03/23 09:49:43;;;;;;;9.55;4.05;;;10.50;52.60;;;;;;5077410;28;20029;-74
2022/03/23 09:52:10;;;;;;;7.53;3.87;;;10.60;52.30;;;;;;5082882;28;20127;-76
2022/03/23 09:54:37;;;;;;;7.25;3.92;;;10.70;51.80;;;;;;5079580;28;20124;-74
2022/03/23 09:57:06;;;;;;;7.72;3.95;;;10.80;50.90;;;;;;5077909;28;20054;-74
2022/03/23 09:59:33;;;;;;;9.10;3.85;;;10.90;51.10;;;;;;5082261;28;20127;-72
2022/03/23 10:02:36;;;;;;;7.82;3.95;;;10.90;50.80;;;;;;5079278;28;20055;-75
2022/03/23 10:05:43;;;;;;;8.75;4.40;;;11.00;51.40;;;;;;5070817;28;20044;-77
2022/03/23 10:08:53;;;;;;;6.53;3.53;;;11.10;51.40;;;;;;5074950;28;20033;-78
2022/03/23 10:12:15;;;;;;;8.18;3.40;;;11.30;50.40;;;;;;5078582;28;20048;-75
2022/03/23 10:15:36;;;;;;;6.55;3.50;;;11.30;50.80;;;;;;5071018;28;20101;-74
2022/03/23 10:18:37;;;;;;;7.03;3.85;;;11.40;50.10;;;;;;5078541;28;20040;-73
2022/03/23 10:21:04;;;;;;;8.25;3.58;;;11.60;50.10;;;;;;5077912;28;20408;-76
2022/03/23 10:23:31;;;;;;;7.90;3.58;;;11.60;50.00;;;;;;5080990;28;20070;-75
2022/03/23 10:26:10;;;;;;;6.93;3.45;;;11.70;50.10;;;;;;5073162;28;20039;-74
2022/03/23 10:28:37;;;;;;;7.05;3.60;;;11.70;49.50;;;;;;5083740;28;20048;-75
2022/03/23 10:31:16;;;;;;;9.65;4.68;;;11.80;49.80;;;;;;5078183;28;20093;-72
2022/03/23 10:33:45;;;;;;;9.77;4.07;;;11.90;49.70;;;;;;5073965;28;20040;-78
2022/03/23 10:36:12;;;;;;;9.85;4.53;;;12.00;49.40;;;;;;5066816;28;20079;-75
2022/03/23 10:38:40;;;;;;;8.95;4.68;;;12.10;49.20;;;;;;5071391;28;20048;-76
2022/03/23 10:41:10;;;;;;;10.15;4.50;;;12.10;49.10;;;;;;5072848;28;20051;-77
2022/03/23 10:43:39;;;;;;;11.20;4.82;;;12.20;49.20;;;;;;5072745;28;20127;-76
2022/03/23 10:46:10;;;;;;;11.23;4.78;;;12.20;48.90;;;;;;5074722;28;20107;-77
2022/03/23 10:48:38;;;;;;;9.52;5.30;;;12.30;49.10;;;;;;5075946;28;20045;-76
2022/03/23 10:51:06;;;;;;;12.43;6.32;;;12.30;47.90;;;;;;5074287;28;20031;-75
2022/03/23 10:53:35;;;;;;;11.05;5.22;;;12.40;47.40;;;;;;5080598;28;20044;-75
2022/03/23 10:56:03;;;;;;;11.00;5.30;;;12.50;47.70;;;;;;5067336;28;20043;-77
2022/03/23 11:02:09;;;;;;;11.13;5.32;;;12.60;47.20;;;;;;5076557;28;20116;-76
2022/03/23 11:04:47;;;;;;;11.30;5.47;;;12.60;47.20;;;;;;5061672;28;20490;-73
2022/03/23 11:07:27;;;;;;;10.93;5.15;;;12.70;46.00;;;;;;5078172;28;20066;-76
2022/03/23 11:18:11;;;;;;;11.93;5.35;;;12.90;45.50;;;;;;5076999;28;20040;-76
2022/03/23 11:20:43;;;;;;;9.50;5.07;;;12.90;45.70;;;;;;5074824;28;20134;-75
2022/03/23 11:23:24;;;;;;;10.20;4.78;;;12.90;45.60;;;;;;5076937;28;20118;-77
2022/03/23 11:25:53;;;;;;;9.90;4.88;;;13.00;44.90;;;;;;5076728;28;20043;-75
2022/03/23 11:28:20;;;;;;;8.25;4.38;;;13.10;44.40;;;;;;5075516;28;20044;-75
2022/03/23 11:30:48;;;;;;;8.15;3.42;;;13.10;42.50;;;;;;5073922;28;20040;-76
2022/03/23 11:33:17;;;;;;;9.75;4.18;;;13.10;43.90;;;;;;5078782;28;20049;-75
2022/03/23 11:35:48;;;;;;;9.88;4.07;;;13.10;42.20;;;;;;5066021;28;20048;-76
2022/03/23 11:38:18;;;;;;;6.70;3.30;;;13.10;43.10;;;;;;5075995;28;20116;-75
2022/03/23 11:40:47;;;;;;;7.43;3.70;;;13.20;43.30;;;;;;5070684;28;20041;-75
2022/03/23 11:43:16;;;;;;;9.68;4.32;;;13.20;43.00;;;;;;5068613;28;20049;-77
2022/03/23 11:45:45;;;;;;;8.73;4.00;;;13.20;43.70;;;;;;5076792;28;20044;-77
2022/03/23 11:48:19;;;;;;;8.27;4.03;;;13.30;42.40;;;;;;5072758;28;20055;-75
2022/03/23 11:51:10;;;;;;;12.32;4.43;;;13.30;43.50;;;;;;5068482;28;20469;-77
2022/03/23 11:53:48;;;;;;;10.45;4.43;;;13.40;43.70;;;;;;5064985;28;20055;-78
2022/03/23 11:56:24;;;;;;;7.43;3.45;;;13.40;43.50;;;;;;5076113;28;20059;-77
2022/03/23 11:58:52;;;;;;;8.52;3.78;;;13.50;43.50;;;;;;5065626;28;20473;-74
2022/03/23 12:01:20;;;;;;;7.35;3.85;;;13.50;43.00;;;;;;5068311;28;23430;-75
2022/03/23 12:03:53;;;;;;;8.63;3.70;;;13.50;42.60;;;;;;5053118;28;20048;-75
2022/03/23 12:06:22;;;;;;;7.57;3.72;;;13.50;42.50;;;;;;5068367;28;20565;-74
2022/03/23 12:08:51;;;;;;;7.20;3.15;;;13.50;42.50;;;;;;5070040;28;20094;-75
2022/03/23 12:11:38;;;;;;;4.82;2.78;;;13.50;42.50;;;;;;5069010;28;20098;-75
2022/03/23 12:14:07;;;;;;;5.65;2.88;;;13.50;42.10;;;;;;5078187;28;20040;-76
2022/03/23 12:17:09;;;;;;;7.45;3.50;;;13.60;42.50;;;;;;5069673;28;20094;-75
2022/03/23 12:19:55;;;;;;;12.32;4.88;;;13.60;42.70;;;;;;5056585;28;20066;-75
2022/03/23 12:22:54;;;;;;;7.90;4.15;;;13.60;42.00;;;;;;5053131;28;20082;-78
2022/03/23 12:25:29;;;;;;;8.13;4.03;;;13.60;42.30;;;;;;5066645;28;20093;-77
2022/03/23 12:28:11;;;;;;;8.60;4.30;;;13.60;42.50;;;;;;5064937;28;20583;-77
2022/03/23 12:30:47;;;;;;;9.77;4.25;;;13.60;42.40;;;;;;5066852;28;20276;-75
2022/03/23 12:33:21;;;;;;;6.63;3.33;;;13.60;42.00;;;;;;5067268;28;20055;-77
2022/03/23 12:35:49;;;;;;;7.72;3.75;;;13.60;41.80;;;;;;5066714;28;20048;-76
2022/03/23 12:38:22;;;;;;;8.52;3.80;;;13.60;41.60;;;;;;5072017;28;20072;-74
2022/03/23 12:40:50;;;;;;;10.02;4.00;;;13.60;41.00;;;;;;5064162;28;20045;-76
2022/03/23 12:43:37;;;;;;;7.63;2.78;;;13.60;40.20;;;;;;5063019;28;20051;-77
2022/03/23 12:46:07;;;;;;;8.77;4.35;;;13.60;41.00;;;;;;5063932;28;20495;-77
2022/03/23 12:59:39;;;;;;;7.07;3.42;;;13.60;41.90;;;;;;5072530;28;20041;-79
2022/03/23 13:02:30;;;;;;;6.13;2.25;;;13.60;41.80;;;;;;5064197;28;20055;-78
2022/03/23 13:04:57;;;;;;;6.47;3.08;;;13.60;41.90;;;;;;5063868;28;20056;-76
2022/03/23 13:07:41;;;;;;;8.93;3.25;;;13.50;40.60;;;;;;5057820;28;20113;-76
2022/03/23 13:10:10;;;;;;;7.03;3.45;;;13.50;41.30;;;;;;5059560;28;20147;-72
2022/03/23 13:12:38;;;;;;;6.50;2.97;;;13.50;41.60;;;;;;5059744;28;20048;-78
2022/03/23 13:15:12;;;;;;;6.85;2.92;;;13.50;41.60;;;;;;5059392;28;20102;-76
2022/03/23 13:17:41;;;;;;;5.75;2.60;;;13.50;41.70;;;;;;5058131;28;20123;-76
2022/03/23 13:20:09;;;;;;;5.65;2.70;;;13.40;41.10;;;;;;5058951;28;20054;-80
2022/03/23 13:22:38;;;;;;;5.90;2.80;;;13.40;40.20;;;;;;5066574;28;20128;-75
2022/03/23 13:25:09;;;;;;;8.85;3.15;;;13.40;41.20;;;;;;5061871;28;20130;-75
2022/03/23 13:27:38;;;;;;;6.88;2.85;;;13.40;41.60;;;;;;5069226;28;20062;-77
2022/03/23 13:30:07;;;;;;;7.13;2.30;;;13.40;40.90;;;;;;5060696;28;20060;-76
2022/03/23 13:32:39;;;;;;;5.30;2.60;;;13.40;41.30;;;;;;5069575;28;20037;-75
2022/03/23 13:35:13;;;;;;;5.85;2.33;;;13.40;40.80;;;;;;5073375;28;20044;-77
2022/03/23 13:37:58;;;;;;;3.15;1.80;;;13.40;41.50;;;;;;5066891;28;20170;-73
2022/03/23 13:40:27;;;;;;;4.20;2.20;;;13.40;41.30;;;;;;5070511;28;20044;-74
2022/03/23 13:45:43;;;;;;;6.57;2.38;;;13.50;41.00;;;;;;5046172;28;20063;-76
2022/03/23 13:48:11;;;;;;;5.40;2.25;;;13.50;41.10;;;;;;5061203;28;20138;-74
2022/03/23 13:50:44;;;;;;;6.97;2.90;;;13.50;41.00;;;;;;5059351;28;20101;-78